Time;durP1;ratioP1;P1;durP2;ratioP2;P2;SDS_P1;SDS_P2;PMS_P1;PMS_P2;Temp;Humidity;BMP_temperature;BMP_pressure;BME280_temperature;BME280_humidity;BME280_pressure;Samples;Min_cycle;Max_cycle;Signal;HPM_P1;HPM_P2
2022/10/14 00:01:37;;;;;;;16.60;14.00;;;;;;;;;;5075613;28;20447;-61
2022/10/14 00:04:04;;;;;;;15.60;14.00;;;;;;;;;;5075397;28;20534;-61
2022/10/14 00:06:33;;;;;;;16.00;13.37;;;;;;;;;;5075373;28;20542;-61
2022/10/14 00:09:01;;;;;;;16.07;14.37;;;;;;;;;;5075516;28;20458;-62
2022/10/14 00:11:29;;;;;;;15.23;13.05;;;;;;;;;;5075456;28;20456;-61
2022/10/14 00:13:58;;;;;;;15.87;14.00;;;;;;;;;;5075503;28;20192;-61
2022/10/14 00:16:28;;;;;;;16.37;12.97;;;;;;;;;;5075250;28;20448;-61
2022/10/14 00:18:55;;;;;;;14.83;13.07;;;;;;;;;;5075150;28;20530;-61
2022/10/14 00:21:21;;;;;;;20.00;14.63;;;;;;;;;;5075127;28;21022;-61
2022/10/14 00:23:50;;;;;;;17.02;13.35;;;;;;;;;;5075264;28;20450;-61
2022/10/14 00:26:19;;;;;;;18.73;14.33;;;;;;;;;;5075438;28;20575;-61
2022/10/14 00:28:46;;;;;;;20.60;13.50;;;;;;;;;;5075053;28;20452;-61
2022/10/14 00:31:12;;;;;;;17.67;14.93;;;;;;;;;;5074920;28;20537;-61
2022/10/14 00:33:39;;;;;;;18.20;14.40;;;;;;;;;;5074857;28;20447;-61
2022/10/14 00:36:07;;;;;;;16.07;14.37;;;;;;;;;;5074757;28;20454;-61
2022/10/14 00:38:34;;;;;;;20.37;14.83;;;;;;;;;;5074865;28;20455;-61
2022/10/14 00:41:02;;;;;;;18.27;14.65;;;;;;;;;;5074832;28;20946;-61
2022/10/14 00:43:30;;;;;;;14.90;12.32;;;;;;;;;;5074816;28;20552;-61
2022/10/14 00:45:57;;;;;;;16.03;13.90;;;;;;;;;;5074503;28;20213;-61
2022/10/14 00:48:25;;;;;;;17.53;13.43;;;;;;;;;;5074503;28;20471;-61
2022/10/14 00:50:53;;;;;;;15.90;13.73;;;;;;;;;;5074795;28;20530;-61
2022/10/14 00:53:21;;;;;;;16.60;13.33;;;;;;;;;;5074624;28;20483;-61
2022/10/14 00:55:48;;;;;;;14.50;13.00;;;;;;;;;;5074618;28;20541;-61
2022/10/14 00:58:17;;;;;;;20.47;14.17;;;;;;;;;;5074275;28;20957;-61
2022/10/14 01:00:44;;;;;;;16.87;12.97;;;;;;;;;;5074301;28;20454;-61
2022/10/14 01:03:18;;;;;;;16.40;13.43;;;;;;;;;;5074496;28;20530;-61
2022/10/14 01:05:47;;;;;;;18.63;12.10;;;;;;;;;;5073296;28;20529;-61
2022/10/14 01:08:18;;;;;;;14.00;12.27;;;;;;;;;;5074187;28;20323;-61
2022/10/14 01:10:50;;;;;;;18.83;13.17;;;;;;;;;;5074211;28;20542;-61
2022/10/14 01:13:23;;;;;;;18.57;13.87;;;;;;;;;;5074359;28;20442;-61
2022/10/14 01:15:55;;;;;;;16.27;13.63;;;;;;;;;;5074064;28;20460;-61
2022/10/14 01:18:29;;;;;;;20.10;14.27;;;;;;;;;;5074112;28;20542;-61
2022/10/14 01:21:03;;;;;;;17.13;14.37;;;;;;;;;;5073994;28;20542;-61
2022/10/14 01:23:37;;;;;;;19.73;12.97;;;;;;;;;;5073830;28;20446;-61
2022/10/14 01:26:12;;;;;;;15.10;13.40;;;;;;;;;;5073964;28;20487;-61
2022/10/14 01:28:45;;;;;;;15.80;13.13;;;;;;;;;;5073841;28;20189;-61
2022/10/14 01:31:17;;;;;;;16.38;13.15;;;;;;;;;;5073837;28;20195;-61
2022/10/14 01:33:46;;;;;;;18.90;13.27;;;;;;;;;;5073709;28;20189;-61
2022/10/14 01:36:17;;;;;;;15.90;13.00;;;;;;;;;;5073911;28;20534;-61
2022/10/14 01:38:47;;;;;;;15.57;13.93;;;;;;;;;;5073776;28;20452;-61
2022/10/14 01:41:16;;;;;;;14.07;12.67;;;;;;;;;;5074147;28;20454;-61
2022/10/14 01:43:46;;;;;;;15.07;12.73;;;;;;;;;;5073595;28;20447;-61
2022/10/14 01:46:14;;;;;;;15.90;12.90;;;;;;;;;;5073352;28;20501;-61
2022/10/14 01:48:44;;;;;;;16.60;13.40;;;;;;;;;;5073258;28;20478;-61
2022/10/14 01:51:13;;;;;;;17.33;13.10;;;;;;;;;;5073587;28;20525;-61
2022/10/14 01:53:41;;;;;;;18.57;14.07;;;;;;;;;;5073476;28;20480;-61
2022/10/14 01:56:09;;;;;;;14.90;12.83;;;;;;;;;;5073406;28;20439;-61
2022/10/14 01:58:37;;;;;;;16.63;13.57;;;;;;;;;;5073338;28;20831;-61
2022/10/14 02:01:04;;;;;;;15.63;13.37;;;;;;;;;;5073185;28;20466;-60
2022/10/14 02:03:40;;;;;;;15.70;13.03;;;;;;;;;;5073399;28;20443;-61
2022/10/14 02:06:08;;;;;;;16.02;13.60;;;;;;;;;;5073528;28;20483;-61
2022/10/14 02:08:40;;;;;;;15.80;13.70;;;;;;;;;;5073196;28;20243;-61
2022/10/14 02:11:09;;;;;;;14.40;12.90;;;;;;;;;;5073182;28;20458;-61
2022/10/14 02:13:44;;;;;;;16.00;13.37;;;;;;;;;;5073002;28;20542;-61
2022/10/14 02:16:14;;;;;;;16.93;14.47;;;;;;;;;;5073115;28;20447;-61
2022/10/14 02:18:49;;;;;;;18.10;13.37;;;;;;;;;;5073136;28;20458;-61
2022/10/14 02:21:19;;;;;;;17.73;13.90;;;;;;;;;;5073117;28;20537;-61
2022/10/14 02:23:48;;;;;;;15.83;12.70;;;;;;;;;;5072866;28;20542;-61
2022/10/14 02:26:16;;;;;;;18.07;13.80;;;;;;;;;;5073054;28;20486;-61
2022/10/14 02:28:43;;;;;;;15.90;14.00;;;;;;;;;;5073006;28;20890;-61
2022/10/14 02:31:12;;;;;;;17.60;12.20;;;;;;;;;;5073026;28;20191;-61
2022/10/14 02:33:41;;;;;;;16.23;13.70;;;;;;;;;;5072973;28;20970;-61
2022/10/14 02:36:10;;;;;;;15.97;12.43;;;;;;;;;;5072887;28;20935;-61
2022/10/14 02:38:38;;;;;;;17.15;14.07;;;;;;;;;;5072756;28;20864;-61
2022/10/14 02:41:05;;;;;;;17.48;14.15;;;;;;;;;;5072978;28;20189;-61
2022/10/14 02:43:32;;;;;;;18.38;12.60;;;;;;;;;;5072988;28;20276;-61
2022/10/14 02:46:01;;;;;;;13.93;12.50;;;;;;;;;;5072688;28;20219;-61
2022/10/14 02:48:28;;;;;;;17.30;13.40;;;;;;;;;;5072472;28;21015;-61
2022/10/14 02:50:54;;;;;;;14.57;12.30;;;;;;;;;;5072722;28;20534;-62
2022/10/14 02:53:23;;;;;;;14.70;12.10;;;;;;;;;;5073092;28;20456;-61
2022/10/14 02:55:50;;;;;;;12.80;11.50;;;;;;;;;;5072806;28;20501;-61
2022/10/14 02:58:17;;;;;;;16.95;14.10;;;;;;;;;;5072516;28;20537;-61
2022/10/14 03:00:43;;;;;;;14.48;13.00;;;;;;;;;;5072705;28;20195;-61
2022/10/14 03:03:10;;;;;;;17.10;13.02;;;;;;;;;;5072547;28;20185;-61
2022/10/14 03:05:37;;;;;;;14.23;12.77;;;;;;;;;;5072464;28;20562;-61
2022/10/14 03:08:04;;;;;;;16.75;13.05;;;;;;;;;;5072678;28;20447;-61
2022/10/14 03:10:32;;;;;;;17.92;12.40;;;;;;;;;;5072624;28;20217;-60
2022/10/14 03:12:59;;;;;;;18.47;14.60;;;;;;;;;;5072532;28;20186;-61
2022/10/14 03:15:26;;;;;;;14.52;11.52;;;;;;;;;;5072489;28;20451;-61
2022/10/14 03:17:53;;;;;;;15.55;13.05;;;;;;;;;;5072322;28;20595;-61
2022/10/14 03:20:20;;;;;;;15.25;12.93;;;;;;;;;;5072342;28;20693;-61
2022/10/14 03:22:47;;;;;;;16.53;12.00;;;;;;;;;;5072560;28;20193;-61
2022/10/14 03:25:14;;;;;;;13.60;11.52;;;;;;;;;;5072399;28;20451;-61
2022/10/14 03:27:42;;;;;;;17.13;12.73;;;;;;;;;;5072410;28;20185;-61
2022/10/14 03:30:10;;;;;;;16.70;14.25;;;;;;;;;;5075754;28;20280;-61
2022/10/14 03:32:37;;;;;;;18.07;13.83;;;;;;;;;;5076009;28;20203;-61
2022/10/14 03:35:04;;;;;;;14.85;13.25;;;;;;;;;;5076212;28;20443;-61
2022/10/14 03:37:31;;;;;;;18.30;15.07;;;;;;;;;;5075831;28;20653;-61
2022/10/14 03:39:58;;;;;;;15.23;13.63;;;;;;;;;;5075921;28;20954;-61
2022/10/14 03:42:25;;;;;;;15.40;13.43;;;;;;;;;;5075935;28;20538;-61
2022/10/14 03:44:53;;;;;;;16.40;14.70;;;;;;;;;;5075853;28;20475;-61
2022/10/14 03:47:21;;;;;;;19.73;15.15;;;;;;;;;;5075525;28;20329;-61
2022/10/14 03:49:48;;;;;;;20.30;14.50;;;;;;;;;;5075916;28;20190;-61
2022/10/14 03:52:14;;;;;;;20.92;15.40;;;;;;;;;;5075709;28;20482;-61
2022/10/14 03:54:41;;;;;;;16.20;14.23;;;;;;;;;;5075759;28;20238;-61
2022/10/14 03:57:08;;;;;;;17.13;14.33;;;;;;;;;;5075606;28;20189;-61
2022/10/14 03:59:35;;;;;;;19.53;14.20;;;;;;;;;;5075391;28;20447;-61
2022/10/14 04:02:03;;;;;;;18.60;13.80;;;;;;;;;;5075779;28;20447;-61
2022/10/14 04:04:30;;;;;;;22.30;14.40;;;;;;;;;;5075618;28;20816;-61
2022/10/14 04:06:57;;;;;;;23.60;14.80;;;;;;;;;;5075446;28;20572;-61
2022/10/14 04:09:26;;;;;;;19.52;14.82;;;;;;;;;;5075319;28;20454;-61
2022/10/14 04:11:54;;;;;;;18.53;14.93;;;;;;;;;;5075288;28;20284;-61
2022/10/14 04:14:21;;;;;;;20.10;14.88;;;;;;;;;;5075257;28;20812;-61
2022/10/14 04:16:48;;;;;;;16.67;14.87;;;;;;;;;;5075181;28;20225;-61
2022/10/14 04:19:16;;;;;;;16.63;14.57;;;;;;;;;;5075217;28;20448;-61
2022/10/14 04:21:43;;;;;;;22.80;13.93;;;;;;;;;;5075237;28;20649;-61
2022/10/14 04:24:10;;;;;;;17.90;14.87;;;;;;;;;;5075136;28;20633;-61
2022/10/14 04:26:37;;;;;;;17.57;15.60;;;;;;;;;;5074959;28;20473;-61
2022/10/14 04:29:04;;;;;;;14.57;12.90;;;;;;;;;;5074874;28;20453;-61
2022/10/14 04:31:31;;;;;;;16.60;14.47;;;;;;;;;;5074990;28;20454;-61
2022/10/14 04:33:58;;;;;;;18.58;13.77;;;;;;;;;;5074986;28;20822;-61
2022/10/14 04:36:26;;;;;;;20.73;14.10;;;;;;;;;;5074946;28;20232;-61
2022/10/14 04:38:53;;;;;;;15.63;13.23;;;;;;;;;;5074718;28;20444;-61
2022/10/14 04:41:20;;;;;;;18.67;15.73;;;;;;;;;;5073446;28;20448;-61
2022/10/14 04:43:47;;;;;;;19.87;15.40;;;;;;;;;;5074565;28;20451;-61
2022/10/14 04:46:14;;;;;;;17.83;14.47;;;;;;;;;;5074582;28;20549;-61
2022/10/14 04:48:41;;;;;;;18.93;14.60;;;;;;;;;;5074421;28;20899;-61
2022/10/14 04:51:08;;;;;;;24.20;17.00;;;;;;;;;;5074530;28;20447;-61
2022/10/14 04:53:36;;;;;;;16.47;13.20;;;;;;;;;;5074438;28;20539;-61
2022/10/14 04:56:03;;;;;;;17.60;15.47;;;;;;;;;;5074312;28;20542;-61
2022/10/14 04:58:30;;;;;;;18.67;15.07;;;;;;;;;;5074480;28;20447;-61
2022/10/14 05:00:57;;;;;;;18.03;15.40;;;;;;;;;;5074370;28;20456;-61
2022/10/14 05:03:24;;;;;;;18.07;15.80;;;;;;;;;;5074261;28;20447;-61
2022/10/14 05:05:51;;;;;;;18.80;16.70;;;;;;;;;;5074234;28;20908;-61
2022/10/14 05:08:18;;;;;;;17.83;15.30;;;;;;;;;;5074109;28;20462;-61
2022/10/14 05:10:48;;;;;;;17.92;16.10;;;;;;;;;;5073972;28;20845;-61
2022/10/14 05:13:15;;;;;;;17.80;15.63;;;;;;;;;;5074301;28;20217;-61
2022/10/14 05:15:42;;;;;;;18.90;14.48;;;;;;;;;;5074176;28;20539;-61
2022/10/14 05:18:11;;;;;;;18.25;15.23;;;;;;;;;;5074109;28;20282;-62
2022/10/14 05:20:38;;;;;;;15.80;13.27;;;;;;;;;;5074100;28;20223;-61
2022/10/14 05:23:05;;;;;;;17.93;13.97;;;;;;;;;;5073893;28;20447;-61
2022/10/14 05:25:31;;;;;;;15.40;13.73;;;;;;;;;;5073997;28;20852;-61
2022/10/14 05:28:00;;;;;;;18.13;14.53;;;;;;;;;;5073729;28;20485;-61
2022/10/14 05:30:27;;;;;;;18.07;15.00;;;;;;;;;;5073620;28;20451;-61
2022/10/14 05:32:54;;;;;;;23.60;17.17;;;;;;;;;;5073531;28;20454;-61
2022/10/14 05:35:21;;;;;;;18.57;15.47;;;;;;;;;;5073662;28;20534;-61
2022/10/14 05:37:48;;;;;;;17.87;14.70;;;;;;;;;;5073402;28;20965;-61
2022/10/14 05:40:14;;;;;;;19.43;13.90;;;;;;;;;;5073591;28;20451;-61
2022/10/14 05:42:41;;;;;;;15.67;13.83;;;;;;;;;;5073714;28;20891;-61
2022/10/14 05:45:10;;;;;;;19.00;14.33;;;;;;;;;;5073398;28;20454;-61
2022/10/14 05:47:37;;;;;;;18.67;14.00;;;;;;;;;;5073109;28;20491;-61
2022/10/14 05:50:04;;;;;;;14.93;13.47;;;;;;;;;;5073204;28;20454;-61
2022/10/14 05:52:31;;;;;;;20.50;12.90;;;;;;;;;;5073190;28;20490;-61
2022/10/14 05:54:58;;;;;;;18.73;13.93;;;;;;;;;;5073368;28;20797;-61
2022/10/14 05:57:25;;;;;;;21.47;15.40;;;;;;;;;;5073131;28;20491;-61
2022/10/14 05:59:52;;;;;;;16.17;14.23;;;;;;;;;;5073246;28;20448;-61
2022/10/14 06:02:21;;;;;;;23.13;15.00;;;;;;;;;;5073120;28;20451;-61
2022/10/14 06:04:47;;;;;;;15.87;14.10;;;;;;;;;;5073026;28;20451;-61
2022/10/14 06:07:14;;;;;;;17.55;14.52;;;;;;;;;;5072951;28;21044;-60
2022/10/14 06:09:41;;;;;;;18.43;14.43;;;;;;;;;;5073061;28;20219;-61
2022/10/14 06:12:08;;;;;;;16.77;14.50;;;;;;;;;;5073081;28;20888;-61
2022/10/14 06:14:35;;;;;;;18.67;14.27;;;;;;;;;;5072967;28;20534;-61
2022/10/14 06:17:03;;;;;;;18.40;15.10;;;;;;;;;;5072923;28;20984;-61
2022/10/14 06:19:32;;;;;;;16.30;14.57;;;;;;;;;;5072867;28;20542;-61
2022/10/14 06:21:59;;;;;;;21.60;15.50;;;;;;;;;;5073112;28;20538;-61
2022/10/14 06:24:26;;;;;;;18.10;15.13;;;;;;;;;;5073017;28;20542;-61
2022/10/14 06:26:53;;;;;;;18.23;13.50;;;;;;;;;;5072890;28;20486;-61
2022/10/14 06:29:22;;;;;;;19.17;14.40;;;;;;;;;;5072723;28;20537;-61
2022/10/14 06:31:49;;;;;;;20.93;13.90;;;;;;;;;;5072696;28;20455;-61
2022/10/14 06:34:17;;;;;;;15.77;14.07;;;;;;;;;;5072923;28;20530;-61
2022/10/14 06:36:45;;;;;;;17.20;14.40;;;;;;;;;;5072886;28;20609;-61
2022/10/14 06:39:12;;;;;;;18.07;15.27;;;;;;;;;;5071802;28;20525;-61
2022/10/14 06:41:39;;;;;;;17.37;15.53;;;;;;;;;;5079432;28;20463;-61
2022/10/14 06:44:06;;;;;;;14.87;13.30;;;;;;;;;;5097635;28;20496;-61
2022/10/14 06:46:33;;;;;;;21.90;15.93;;;;;;;;;;5088704;28;20470;-59
2022/10/14 06:49:00;;;;;;;24.90;17.23;;;;;;;;;;5081119;28;21037;-59
2022/10/14 06:51:27;;;;;;;19.40;16.87;;;;;;;;;;5083430;28;20271;-59
2022/10/14 06:53:55;;;;;;;18.97;15.70;;;;;;;;;;5083035;28;20451;-59
2022/10/14 06:56:22;;;;;;;17.70;14.20;;;;;;;;;;5075858;28;20543;-58
2022/10/14 06:58:49;;;;;;;14.17;12.80;;;;;;;;;;5096819;28;20525;-58
2022/10/14 07:01:16;;;;;;;15.07;12.40;;;;;;;;;;5108575;28;20442;-59
2022/10/14 07:03:43;;;;;;;18.65;13.45;;;;;;;;;;5084361;28;20534;-60
2022/10/14 07:06:10;;;;;;;15.03;13.53;;;;;;;;;;5095938;28;20231;-59
2022/10/14 07:08:37;;;;;;;16.87;14.63;;;;;;;;;;5092732;28;20854;-60
2022/10/14 07:11:06;;;;;;;16.67;14.70;;;;;;;;;;5087231;28;20489;-60
2022/10/14 07:13:34;;;;;;;19.73;14.38;;;;;;;;;;5116459;28;20533;-58
2022/10/14 07:16:01;;;;;;;15.40;13.90;;;;;;;;;;5100096;28;20192;-61
2022/10/14 07:18:28;;;;;;;19.97;15.33;;;;;;;;;;5076933;28;20527;-60
2022/10/14 07:20:54;;;;;;;18.00;15.23;;;;;;;;;;5078693;28;20457;-58
2022/10/14 07:23:21;;;;;;;18.10;16.20;;;;;;;;;;5094482;28;20494;-58
2022/10/14 07:25:48;;;;;;;19.17;15.80;;;;;;;;;;5085114;28;20450;-62
2022/10/14 07:28:17;;;;;;;18.80;16.80;;;;;;;;;;5095101;28;20486;-60
2022/10/14 07:30:44;;;;;;;21.65;17.75;;;;;;;;;;5094520;28;20886;-64
2022/10/14 07:33:10;;;;;;;21.42;17.58;;;;;;;;;;5075943;28;20189;-60
2022/10/14 07:35:38;;;;;;;21.23;17.05;;;;;;;;;;5092430;28;20639;-61
2022/10/14 07:38:05;;;;;;;22.00;17.20;;;;;;;;;;5076199;28;20197;-61
2022/10/14 07:40:32;;;;;;;18.87;15.63;;;;;;;;;;5074946;28;20986;-61
2022/10/14 07:42:59;;;;;;;20.60;16.60;;;;;;;;;;5075836;28;20443;-60
2022/10/14 07:45:29;;;;;;;23.87;16.67;;;;;;;;;;5075643;28;20450;-60
2022/10/14 07:47:56;;;;;;;22.92;17.35;;;;;;;;;;5075074;28;20897;-59
2022/10/14 07:50:23;;;;;;;20.30;16.30;;;;;;;;;;5077769;28;20185;-58
2022/10/14 07:52:50;;;;;;;19.77;16.57;;;;;;;;;;5076079;28;20443;-60
2022/10/14 07:55:17;;;;;;;25.23;18.50;;;;;;;;;;5075517;28;20462;-61
2022/10/14 07:57:44;;;;;;;23.07;16.90;;;;;;;;;;5075652;28;20443;-61
2022/10/14 08:00:11;;;;;;;19.57;16.20;;;;;;;;;;5080291;28;20878;-59
2022/10/14 08:02:39;;;;;;;24.13;18.90;;;;;;;;;;5075522;28;20873;-58
2022/10/14 08:05:07;;;;;;;23.97;19.93;;;;;;;;;;5075240;28;20444;-61
2022/10/14 08:07:33;;;;;;;23.07;18.73;;;;;;;;;;5080198;28;20874;-59
2022/10/14 08:10:00;;;;;;;24.20;17.90;;;;;;;;;;5077338;28;20458;-58
2022/10/14 08:12:27;;;;;;;27.20;18.93;;;;;;;;;;5083260;28;20447;-58
2022/10/14 08:14:56;;;;;;;24.00;19.60;;;;;;;;;;5095075;28;20447;-59
2022/10/14 08:17:23;;;;;;;27.73;19.47;;;;;;;;;;5094912;28;20450;-60
2022/10/14 08:19:51;;;;;;;23.17;20.25;;;;;;;;;;5084706;28;20475;-59
2022/10/14 08:22:18;;;;;;;20.77;18.57;;;;;;;;;;5085790;28;20219;-59
2022/10/14 08:24:45;;;;;;;26.80;19.97;;;;;;;;;;5094848;28;20442;-59
2022/10/14 08:27:12;;;;;;;22.73;20.33;;;;;;;;;;5095206;28;20889;-58
2022/10/14 08:29:39;;;;;;;25.57;18.33;;;;;;;;;;5095070;28;20493;-60
2022/10/14 08:32:06;;;;;;;29.60;20.47;;;;;;;;;;5094985;28;20446;-61
2022/10/14 08:34:33;;;;;;;21.90;19.47;;;;;;;;;;5094842;28;20453;-62
2022/10/14 08:37:01;;;;;;;25.40;18.30;;;;;;;;;;5092616;28;20446;-59
2022/10/14 08:39:28;;;;;;;25.90;18.03;;;;;;;;;;5094509;28;20912;-59
2022/10/14 08:42:05;;;;;;;23.00;17.73;;;;;;;;;;5094664;28;20447;-59
2022/10/14 08:44:40;;;;;;;26.00;18.10;;;;;;;;;;5094870;28;20446;-59
2022/10/14 08:47:11;;;;;;;22.57;18.67;;;;;;;;;;5094449;28;20485;-59
2022/10/14 08:49:42;;;;;;;23.30;19.97;;;;;;;;;;5094725;28;20930;-58
2022/10/14 08:52:14;;;;;;;25.20;18.20;;;;;;;;;;5094375;28;20475;-58
2022/10/14 08:54:43;;;;;;;32.13;18.97;;;;;;;;;;5093417;28;20455;-61
2022/10/14 08:57:13;;;;;;;21.50;18.87;;;;;;;;;;5094538;28;20450;-58
2022/10/14 08:59:41;;;;;;;28.90;19.37;;;;;;;;;;5093953;28;20938;-60
2022/10/14 09:02:15;;;;;;;26.83;20.43;;;;;;;;;;5094531;28;20537;-55
2022/10/14 09:04:42;;;;;;;24.13;18.27;;;;;;;;;;5094284;28;20452;-58
2022/10/14 09:07:12;;;;;;;25.40;19.60;;;;;;;;;;5093930;28;20826;-58
2022/10/14 09:09:41;;;;;;;28.73;19.77;;;;;;;;;;5091521;28;20542;-60
2022/10/14 09:12:12;;;;;;;24.73;19.10;;;;;;;;;;5073926;28;20931;-54
2022/10/14 09:14:42;;;;;;;27.50;19.07;;;;;;;;;;5093401;28;20481;-58
2022/10/14 09:17:14;;;;;;;22.27;17.27;;;;;;;;;;5094049;28;20465;-58
2022/10/14 09:19:45;;;;;;;24.03;18.30;;;;;;;;;;5094070;28;20541;-58
2022/10/14 09:22:15;;;;;;;22.53;17.70;;;;;;;;;;5094103;28;20478;-62
2022/10/14 09:24:44;;;;;;;22.83;18.10;;;;;;;;;;5093810;28;20537;-63
2022/10/14 09:27:14;;;;;;;22.25;18.23;;;;;;;;;;5093398;28;20474;-60
2022/10/14 09:29:43;;;;;;;24.38;18.08;;;;;;;;;;5094089;28;20551;-58
2022/10/14 09:32:13;;;;;;;23.93;19.30;;;;;;;;;;5094025;28;20220;-55
2022/10/14 09:34:41;;;;;;;21.63;16.90;;;;;;;;;;5093927;28;20457;-56
2022/10/14 09:37:24;;;;;;;23.67;17.67;;;;;;;;;;5093049;28;20450;-57
2022/10/14 09:39:51;;;;;;;25.93;17.80;;;;;;;;;;5093875;28;20461;-50
2022/10/14 09:42:20;;;;;;;21.77;17.90;;;;;;;;;;5093848;28;20457;-58
2022/10/14 09:45:02;;;;;;;22.70;17.80;;;;;;;;;;5093648;28;20454;-61
2022/10/14 09:47:29;;;;;;;20.10;17.77;;;;;;;;;;5098463;28;20477;-61
2022/10/14 09:49:59;;;;;;;19.40;17.30;;;;;;;;;;5113814;28;20537;-58
2022/10/14 09:52:29;;;;;;;21.30;17.67;;;;;;;;;;5113897;28;20537;-55
2022/10/14 09:54:57;;;;;;;25.67;17.73;;;;;;;;;;5113878;28;20481;-57
2022/10/14 09:57:25;;;;;;;27.97;18.10;;;;;;;;;;5113800;28;20494;-57
2022/10/14 09:59:53;;;;;;;23.67;16.80;;;;;;;;;;5112773;28;20456;-59
2022/10/14 10:02:22;;;;;;;18.33;16.23;;;;;;;;;;5113566;28;20510;-62
2022/10/14 10:04:49;;;;;;;18.67;16.60;;;;;;;;;;5113634;28;20468;-60
2022/10/14 10:07:25;;;;;;;19.33;16.10;;;;;;;;;;5113564;28;20450;-61
2022/10/14 10:09:55;;;;;;;22.30;16.60;;;;;;;;;;5112799;28;20533;-61
2022/10/14 10:12:24;;;;;;;18.80;16.17;;;;;;;;;;5113297;28;20543;-61
2022/10/14 10:14:56;;;;;;;20.53;16.03;;;;;;;;;;5113290;28;20456;-59
2022/10/14 10:17:23;;;;;;;24.20;17.10;;;;;;;;;;5098088;28;20985;-59
2022/10/14 10:19:50;;;;;;;20.30;17.00;;;;;;;;;;5077773;28;20448;-58
2022/10/14 10:22:21;;;;;;;18.63;16.35;;;;;;;;;;5072818;28;20487;-60
2022/10/14 10:24:49;;;;;;;18.70;13.90;;;;;;;;;;5072868;28;20197;-58
2022/10/14 10:27:22;;;;;;;22.23;16.60;;;;;;;;;;5072602;28;20492;-58
2022/10/14 10:29:49;;;;;;;19.17;14.50;;;;;;;;;;5072503;28;20457;-61
2022/10/14 10:32:18;;;;;;;15.63;13.97;;;;;;;;;;5072832;28;20451;-59
2022/10/14 10:35:02;;;;;;;20.67;14.50;;;;;;;;;;5072564;28;20899;-59
2022/10/14 10:37:30;;;;;;;15.70;13.33;;;;;;;;;;5072282;28;20454;-62
2022/10/14 10:40:05;;;;;;;15.90;12.90;;;;;;;;;;5072781;28;20871;-61
2022/10/14 10:42:38;;;;;;;16.87;13.27;;;;;;;;;;5072806;28;20542;-61
2022/10/14 10:45:14;;;;;;;21.90;13.20;;;;;;;;;;5072451;28;20454;-59
2022/10/14 10:47:45;;;;;;;18.57;13.17;;;;;;;;;;5072266;28;20959;-61
2022/10/14 10:50:32;;;;;;;14.20;12.20;;;;;;;;;;5072385;28;20474;-61
2022/10/14 10:53:06;;;;;;;12.43;10.83;;;;;;;;;;5076401;28;20546;-58
2022/10/14 10:55:36;;;;;;;17.50;12.53;;;;;;;;;;5092773;28;20446;-61
2022/10/14 10:58:09;;;;;;;18.30;13.13;;;;;;;;;;5080222;28;20451;-62
2022/10/14 11:00:41;;;;;;;19.30;11.27;;;;;;;;;;5071436;28;20459;-62
2022/10/14 11:03:19;;;;;;;14.83;12.10;;;;;;;;;;5072656;28;20455;-63
2022/10/14 11:05:55;;;;;;;14.43;10.83;;;;;;;;;;5072641;28;20492;-62
2022/10/14 11:14:10;;;;;;;16.03;10.43;;;;;;;;;;5072573;28;20479;-62
2022/10/14 11:16:41;;;;;;;11.60;10.40;;;;;;;;;;5072616;28;20888;-62
2022/10/14 11:19:11;;;;;;;12.43;10.63;;;;;;;;;;5072522;28;20451;-62
2022/10/14 11:21:43;;;;;;;13.23;10.00;;;;;;;;;;5072644;28;20493;-62
2022/10/14 11:24:13;;;;;;;12.23;9.37;;;;;;;;;;5072534;28;20538;-62
2022/10/14 11:26:57;;;;;;;12.37;8.73;;;;;;;;;;5072408;28;20443;-62
2022/10/14 11:29:35;;;;;;;14.33;9.53;;;;;;;;;;5072366;28;20486;-62
2022/10/14 11:32:07;;;;;;;12.38;9.80;;;;;;;;;;5072567;28;20798;-62
2022/10/14 11:34:41;;;;;;;12.90;9.80;;;;;;;;;;5072489;28;20504;-63
2022/10/14 11:37:11;;;;;;;10.17;9.17;;;;;;;;;;5072364;28;20478;-62
2022/10/14 11:39:40;;;;;;;10.87;9.77;;;;;;;;;;5072148;28;20483;-62
2022/10/14 11:42:14;;;;;;;10.63;9.27;;;;;;;;;;5072181;28;20443;-62
2022/10/14 11:44:43;;;;;;;9.93;9.03;;;;;;;;;;5072412;28;20954;-62
2022/10/14 11:47:13;;;;;;;10.23;8.17;;;;;;;;;;5071990;28;20450;-62
2022/10/14 11:49:44;;;;;;;11.10;9.00;;;;;;;;;;5073395;28;20493;-62
2022/10/14 11:52:15;;;;;;;10.60;8.50;;;;;;;;;;5075503;28;20447;-62
2022/10/14 11:54:44;;;;;;;9.63;8.73;;;;;;;;;;5075612;28;20538;-62
2022/10/14 11:57:13;;;;;;;10.10;8.97;;;;;;;;;;5075783;28;20288;-62
2022/10/14 11:59:46;;;;;;;10.93;8.30;;;;;;;;;;5075573;28;20939;-63
2022/10/14 12:02:19;;;;;;;9.90;8.53;;;;;;;;;;5075551;28;20448;-62
2022/10/14 12:04:50;;;;;;;10.00;8.50;;;;;;;;;;5075472;28;20483;-62
2022/10/14 12:07:21;;;;;;;9.70;8.70;;;;;;;;;;5075416;28;20454;-62
2022/10/14 12:09:50;;;;;;;11.73;8.10;;;;;;;;;;5075474;28;20505;-63
2022/10/14 12:12:19;;;;;;;8.43;7.23;;;;;;;;;;5075460;28;20447;-63
2022/10/14 12:14:49;;;;;;;8.30;7.50;;;;;;;;;;5075354;28;20542;-62
2022/10/14 12:17:19;;;;;;;8.77;6.50;;;;;;;;;;5075536;28;20458;-63
2022/10/14 12:19:46;;;;;;;7.87;7.07;;;;;;;;;;5075066;28;20631;-63
2022/10/14 12:22:16;;;;;;;6.83;6.13;;;;;;;;;;5075249;28;20454;-62
2022/10/14 12:24:45;;;;;;;8.73;7.10;;;;;;;;;;5075244;28;20860;-62
2022/10/14 12:27:12;;;;;;;9.10;7.27;;;;;;;;;;5075172;28;20443;-62
2022/10/14 12:29:42;;;;;;;7.33;6.30;;;;;;;;;;5074934;28;20483;-62
2022/10/14 12:32:19;;;;;;;6.80;6.13;;;;;;;;;;5075024;28;20458;-62
2022/10/14 12:34:47;;;;;;;7.70;6.03;;;;;;;;;;5075168;28;20771;-63
2022/10/14 12:37:33;;;;;;;7.27;5.63;;;;;;;;;;5074727;28;20197;-63
2022/10/14 12:40:15;;;;;;;6.73;6.20;;;;;;;;;;5074838;28;20450;-63
2022/10/14 12:42:55;;;;;;;6.90;6.20;;;;;;;;;;5074685;28;20459;-63
2022/10/14 12:45:24;;;;;;;5.97;5.37;;;;;;;;;;5074882;28;20451;-63
2022/10/14 12:48:01;;;;;;;6.67;5.53;;;;;;;;;;5074420;28;21090;-63
2022/10/14 12:50:30;;;;;;;9.17;6.17;;;;;;;;;;5074688;28;20807;-63
2022/10/14 12:52:58;;;;;;;6.63;6.03;;;;;;;;;;5074568;28;20465;-63
2022/10/14 12:55:25;;;;;;;6.43;5.90;;;;;;;;;;5074427;28;20204;-63
2022/10/14 12:57:53;;;;;;;8.20;6.30;;;;;;;;;;5074649;28;20479;-63
2022/10/14 13:00:29;;;;;;;6.17;5.43;;;;;;;;;;5074209;28;20200;-63
2022/10/14 13:02:59;;;;;;;8.70;6.80;;;;;;;;;;5073801;28;20478;-62
2022/10/14 13:05:30;;;;;;;5.90;5.40;;;;;;;;;;5074172;28;20877;-63
2022/10/14 13:08:10;;;;;;;7.50;5.97;;;;;;;;;;5074322;28;20849;-62
2022/10/14 13:10:47;;;;;;;6.37;5.67;;;;;;;;;;5074427;28;20197;-63
2022/10/14 13:13:32;;;;;;;8.00;6.05;;;;;;;;;;5074305;28;20934;-63
2022/10/14 13:15:59;;;;;;;6.93;5.67;;;;;;;;;;5074050;28;20284;-62
2022/10/14 13:18:33;;;;;;;6.70;5.80;;;;;;;;;;5074219;28;20451;-62
2022/10/14 13:21:01;;;;;;;6.00;5.50;;;;;;;;;;5074172;28;20475;-63
2022/10/14 13:23:32;;;;;;;6.07;5.13;;;;;;;;;;5073896;28;20189;-62
2022/10/14 13:26:07;;;;;;;8.13;6.13;;;;;;;;;;5073945;28;20459;-62
2022/10/14 13:28:35;;;;;;;5.50;5.10;;;;;;;;;;5073671;28;20985;-63
2022/10/14 13:31:05;;;;;;;6.20;5.57;;;;;;;;;;5073890;28;20503;-63
2022/10/14 13:33:34;;;;;;;5.57;5.17;;;;;;;;;;5073837;28;20537;-62
2022/10/14 13:36:08;;;;;;;7.40;5.67;;;;;;;;;;5073636;28;20447;-62
2022/10/14 13:38:35;;;;;;;6.33;5.27;;;;;;;;;;5073709;28;20455;-62
2022/10/14 13:41:02;;;;;;;6.00;5.07;;;;;;;;;;5073501;28;20543;-63
2022/10/14 13:43:33;;;;;;;7.23;5.93;;;;;;;;;;5073797;28;20452;-63
2022/10/14 13:46:04;;;;;;;8.10;4.70;;;;;;;;;;5073647;28;20819;-62
2022/10/14 13:48:33;;;;;;;6.60;5.43;;;;;;;;;;5073262;28;20483;-62
2022/10/14 13:51:08;;;;;;;7.07;5.80;;;;;;;;;;5073415;28;20500;-62
2022/10/14 13:53:35;;;;;;;5.53;4.80;;;;;;;;;;5073377;28;20541;-63
2022/10/14 13:56:02;;;;;;;5.23;4.70;;;;;;;;;;5073566;28;20882;-63
2022/10/14 13:58:29;;;;;;;6.73;5.70;;;;;;;;;;5073348;28;20942;-62
2022/10/14 14:01:01;;;;;;;5.50;5.00;;;;;;;;;;5073358;28;20461;-62
2022/10/14 14:03:30;;;;;;;4.87;4.47;;;;;;;;;;5073108;28;20958;-62
2022/10/14 14:05:58;;;;;;;5.30;4.80;;;;;;;;;;5073211;28;20463;-62
2022/10/14 14:08:27;;;;;;;4.20;3.80;;;;;;;;;;5073277;28;20955;-62
2022/10/14 14:10:55;;;;;;;9.03;4.90;;;;;;;;;;5073290;28;20550;-62
2022/10/14 14:13:23;;;;;;;4.90;4.17;;;;;;;;;;5072795;28;20875;-62
2022/10/14 14:15:50;;;;;;;4.13;3.80;;;;;;;;;;5073495;28;20517;-62
2022/10/14 14:18:25;;;;;;;6.10;4.60;;;;;;;;;;5073063;28;20447;-62
2022/10/14 14:20:56;;;;;;;4.80;4.40;;;;;;;;;;5073392;28;20451;-62
2022/10/14 14:23:23;;;;;;;4.60;4.10;;;;;;;;;;5073190;28;20821;-62
2022/10/14 14:25:52;;;;;;;4.87;4.47;;;;;;;;;;5072881;28;20539;-62
2022/10/14 14:28:19;;;;;;;4.00;3.70;;;;;;;;;;5073044;28;20881;-62
2022/10/14 14:30:49;;;;;;;4.30;3.70;;;;;;;;;;5072873;28;20569;-62
2022/10/14 14:33:17;;;;;;;4.33;4.03;;;;;;;;;;5072875;28;20511;-62
2022/10/14 14:35:51;;;;;;;4.00;3.70;;;;;;;;;;5072998;28;20451;-62
2022/10/14 14:38:25;;;;;;;4.40;4.00;;;;;;;;;;5072918;28;20538;-62